Time;durP1;ratioP1;P1;durP2;ratioP2;P2;SDS_P1;SDS_P2;PMS_P1;PMS_P2;Temp;Humidity;BMP_temperature;BMP_pressure;BME280_temperature;BME280_humidity;BME280_pressure;Samples;Min_cycle;Max_cycle;Signal;HPM_P1;HPM_P2
2023/11/28 00:00:34;;;;;;;8.85;5.78;;;22.20;99.90;;;;;;5005832;28;20034;-64
2023/11/28 00:03:03;;;;;;;8.30;4.40;;;22.20;99.90;;;;;;5008351;28;20592;-63
2023/11/28 00:05:30;;;;;;;8.00;4.80;;;22.10;99.90;;;;;;5003163;28;20026;-63
2023/11/28 00:08:00;;;;;;;9.43;5.63;;;22.10;99.90;;;;;;5006917;28;20026;-63
2023/11/28 00:10:27;;;;;;;10.63;6.10;;;22.10;99.90;;;;;;5011349;28;20022;-62
2023/11/28 00:12:54;;;;;;;9.40;5.10;;;22.10;99.90;;;;;;5007024;28;20048;-63
2023/11/28 00:15:21;;;;;;;8.63;5.15;;;22.10;99.90;;;;;;5007996;28;20022;-62
2023/11/28 00:17:48;;;;;;;8.73;4.88;;;22.00;99.90;;;;;;5007592;28;20030;-63
2023/11/28 00:20:15;;;;;;;8.52;4.22;;;21.90;99.90;;;;;;5012149;28;20117;-63
2023/11/28 00:22:45;;;;;;;10.32;4.95;;;21.80;99.90;;;;;;5005017;28;20045;-64
2023/11/28 00:25:12;;;;;;;7.30;4.18;;;21.80;99.90;;;;;;5003530;28;20022;-63
2023/11/28 00:27:46;;;;;;;8.18;5.10;;;21.90;99.90;;;;;;5010750;28;20030;-64
2023/11/28 00:30:17;;;;;;;8.20;4.85;;;21.80;99.90;;;;;;5007410;28;20048;-63
2023/11/28 00:32:46;;;;;;;10.48;4.60;;;21.70;99.90;;;;;;5007342;28;20401;-62
2023/11/28 00:35:16;;;;;;;8.90;4.13;;;21.70;99.90;;;;;;5011338;28;20615;-63
2023/11/28 00:37:46;;;;;;;7.05;4.30;;;21.70;99.90;;;;;;5008209;28;20022;-62
2023/11/28 00:40:16;;;;;;;6.47;4.20;;;21.70;99.90;;;;;;5045203;23;20568;-63
2023/11/28 00:42:43;;;;;;;6.57;4.28;;;21.70;99.90;;;;;;5056873;28;20012;-62
2023/11/28 00:45:12;;;;;;;9.30;4.25;;;21.70;99.90;;;;;;5056546;28;20052;-64
2023/11/28 00:47:40;;;;;;;9.80;5.28;;;21.80;99.90;;;;;;5056456;28;20027;-64
2023/11/28 00:50:08;;;;;;;8.25;4.32;;;21.70;99.90;;;;;;5058565;28;20024;-63
2023/11/28 00:52:35;;;;;;;7.55;4.60;;;21.50;99.90;;;;;;5059499;28;20018;-63
2023/11/28 00:55:01;;;;;;;9.55;4.78;;;21.50;99.90;;;;;;5060754;28;20103;-63
2023/11/28 00:57:28;;;;;;;9.50;5.10;;;21.60;99.90;;;;;;5057195;28;20060;-63
2023/11/28 00:59:55;;;;;;;6.22;4.35;;;21.70;99.90;;;;;;5058337;28;20017;-65
2023/11/28 01:02:22;;;;;;;8.90;4.63;;;21.70;99.90;;;;;;5055552;28;20060;-63
2023/11/28 01:04:49;;;;;;;7.60;4.70;;;21.70;99.90;;;;;;5057154;28;20124;-63
2023/11/28 01:07:16;;;;;;;7.55;4.95;;;21.80;99.90;;;;;;5057142;28;20058;-63
2023/11/28 01:09:43;;;;;;;9.75;4.30;;;21.90;99.90;;;;;;5059933;28;20352;-65
2023/11/28 01:12:11;;;;;;;6.95;4.45;;;22.00;99.90;;;;;;5053458;28;20035;-63
2023/11/28 01:14:38;;;;;;;11.75;5.22;;;22.20;99.90;;;;;;5057803;28;20085;-64
2023/11/28 01:17:06;;;;;;;9.02;4.53;;;22.30;99.90;;;;;;5047352;28;20051;-65
2023/11/28 01:19:38;;;;;;;5.75;4.10;;;22.40;99.90;;;;;;5056784;28;20021;-62
2023/11/28 01:22:08;;;;;;;8.75;4.25;;;22.40;99.90;;;;;;5056862;28;20115;-63
2023/11/28 01:24:40;;;;;;;7.30;4.32;;;22.30;99.90;;;;;;5061287;28;20678;-63
2023/11/28 01:27:09;;;;;;;5.82;3.28;;;22.30;99.90;;;;;;5052256;28;20052;-65
2023/11/28 01:29:36;;;;;;;7.03;3.78;;;22.40;99.90;;;;;;5057766;28;20032;-65
2023/11/28 01:32:04;;;;;;;7.88;3.45;;;22.60;99.90;;;;;;5050763;28;20039;-63
2023/11/28 01:34:31;;;;;;;6.70;3.28;;;22.90;99.90;;;;;;5055900;28;20096;-66
2023/11/28 01:36:58;;;;;;;9.38;4.15;;;23.20;99.90;;;;;;5058488;28;20115;-64
2023/11/28 01:39:25;;;;;;;6.05;3.10;;;23.40;99.90;;;;;;5062779;28;20047;-65
2023/11/28 01:41:58;;;;;;;6.35;3.03;;;23.70;99.90;;;;;;5059926;28;20021;-64
2023/11/28 01:44:25;;;;;;;10.02;3.88;;;24.00;99.90;;;;;;5056359;28;20060;-65
2023/11/28 01:46:53;;;;;;;7.45;3.38;;;24.50;99.90;;;;;;5062931;28;20040;-65
2023/11/28 01:49:21;;;;;;;6.85;3.08;;;25.00;99.90;;;;;;5053423;28;20033;-65
2023/11/28 01:51:48;;;;;;;9.52;3.00;;;25.00;99.90;;;;;;5055647;28;20029;-64
2023/11/28 01:54:16;;;;;;;8.75;3.60;;;25.00;99.90;;;;;;5060248;28;20020;-65
2023/11/28 01:56:44;;;;;;;9.82;4.28;;;25.00;99.90;;;;;;5061120;28;20036;-65
2023/11/28 01:59:13;;;;;;;7.68;3.03;;;25.20;99.90;;;;;;5056409;28;20017;-64
2023/11/28 02:01:40;;;;;;;7.03;3.75;;;25.00;99.90;;;;;;5062145;28;20104;-64
2023/11/28 02:04:07;;;;;;;9.43;4.97;;;24.80;99.90;;;;;;5062347;28;20081;-65
2023/11/28 02:06:35;;;;;;;7.25;4.65;;;24.80;99.90;;;;;;5057674;28;20024;-64
2023/11/28 02:09:02;;;;;;;8.20;3.85;;;24.80;99.90;;;;;;5056635;28;20029;-65
2023/11/28 02:11:29;;;;;;;8.98;4.60;;;24.60;99.90;;;;;;5064147;28;20029;-64
2023/11/28 02:13:56;;;;;;;6.78;3.47;;;24.50;99.90;;;;;;5055398;28;20024;-65
2023/11/28 02:16:23;;;;;;;7.47;3.05;;;24.40;99.90;;;;;;5056546;28;20016;-65
2023/11/28 02:18:50;;;;;;;12.23;3.78;;;24.20;99.90;;;;;;5063095;28;20116;-64
2023/11/28 02:21:17;;;;;;;7.82;3.50;;;24.00;99.90;;;;;;5052626;28;20689;-64
2023/11/28 02:23:44;;;;;;;6.75;3.30;;;23.80;99.90;;;;;;5058674;28;20129;-65
2023/11/28 02:26:27;;;;;;;9.65;5.07;;;23.50;99.90;;;;;;5062894;28;20047;-65
2023/11/28 02:28:55;;;;;;;6.60;3.40;;;23.30;99.90;;;;;;5058105;28;20028;-63
2023/11/28 02:31:22;;;;;;;8.85;3.47;;;23.20;99.90;;;;;;5055881;28;20017;-64
2023/11/28 02:33:50;;;;;;;8.05;2.85;;;23.30;99.90;;;;;;5053172;28;20228;-67
2023/11/28 02:36:19;;;;;;;7.40;2.97;;;23.60;99.90;;;;;;5062217;28;20194;-64
2023/11/28 02:38:49;;;;;;;7.40;3.17;;;23.90;99.90;;;;;;5055108;28;20017;-65
2023/11/28 02:41:16;;;;;;;6.05;3.65;;;24.20;99.90;;;;;;5059718;28;20040;-65
2023/11/28 02:43:43;;;;;;;10.77;3.00;;;24.40;99.90;;;;;;5059903;28;20040;-64
2023/11/28 02:46:10;;;;;;;5.25;2.95;;;24.60;99.90;;;;;;5054261;28;20491;-63
2023/11/28 02:48:39;;;;;;;5.22;2.30;;;24.70;99.90;;;;;;5058462;28;20115;-64
2023/11/28 02:51:09;;;;;;;5.35;2.60;;;24.70;99.90;;;;;;5057101;28;20043;-65
2023/11/28 02:53:36;;;;;;;5.68;2.45;;;24.50;99.90;;;;;;5056012;28;20020;-64
2023/11/28 02:56:03;;;;;;;4.35;2.42;;;24.20;99.90;;;;;;5059359;28;20078;-65
2023/11/28 02:58:30;;;;;;;5.25;2.78;;;24.10;99.90;;;;;;5064685;28;20033;-65
2023/11/28 03:00:57;;;;;;;6.07;2.17;;;23.90;99.90;;;;;;5060273;28;20463;-64
2023/11/28 03:03:24;;;;;;;4.75;2.30;;;23.80;99.90;;;;;;5065348;28;20085;-65
2023/11/28 03:05:51;;;;;;;5.07;2.38;;;23.70;99.90;;;;;;5062030;28;20634;-65
2023/11/28 03:08:18;;;;;;;5.10;2.20;;;23.70;99.90;;;;;;5053529;28;20024;-65
2023/11/28 03:10:45;;;;;;;3.20;1.98;;;23.40;99.90;;;;;;5051917;28;20021;-65
2023/11/28 03:13:12;;;;;;;6.13;2.08;;;23.40;99.90;;;;;;5061394;28;20102;-64
2023/11/28 03:15:39;;;;;;;7.50;2.85;;;23.20;99.90;;;;;;5057023;28;20070;-65
2023/11/28 03:18:08;;;;;;;4.97;2.03;;;23.20;99.90;;;;;;5058850;28;20027;-64
2023/11/28 03:20:38;;;;;;;5.70;2.20;;;23.20;99.90;;;;;;5059729;28;20507;-65
2023/11/28 03:23:05;;;;;;;5.80;2.13;;;23.10;99.90;;;;;;5053965;28;20029;-65
2023/11/28 03:25:32;;;;;;;8.10;2.80;;;23.00;99.90;;;;;;5049770;28;20029;-65
2023/11/28 03:27:59;;;;;;;5.63;2.70;;;22.80;99.90;;;;;;5059292;28;20585;-64
2023/11/28 03:30:26;;;;;;;5.45;2.58;;;22.90;99.90;;;;;;5052527;28;20135;-65
2023/11/28 03:32:53;;;;;;;7.32;2.90;;;22.80;99.90;;;;;;5064787;28;20047;-64
2023/11/28 03:35:20;;;;;;;5.80;2.95;;;22.70;99.90;;;;;;5053108;28;20774;-64
2023/11/28 03:37:48;;;;;;;7.22;2.63;;;22.60;99.90;;;;;;5056922;28;20092;-65
2023/11/28 03:40:15;;;;;;;8.57;3.35;;;22.70;99.90;;;;;;5051814;28;20041;-65
2023/11/28 03:42:42;;;;;;;7.05;2.95;;;22.70;99.90;;;;;;5056856;28;20364;-64
2023/11/28 03:45:13;;;;;;;8.73;2.67;;;22.60;99.90;;;;;;5053761;28;20032;-64
2023/11/28 03:47:48;;;;;;;10.23;2.60;;;22.50;99.90;;;;;;5051224;28;20523;-64
2023/11/28 03:50:16;;;;;;;10.73;4.05;;;22.40;99.90;;;;;;5057758;28;20773;-64
2023/11/28 03:52:48;;;;;;;9.82;3.42;;;22.30;99.90;;;;;;5053278;28;20025;-64
2023/11/28 03:55:14;;;;;;;;;;;22.20;99.90;;;;;;5061700;28;20021;-64
2023/11/28 03:57:41;;;;;;;12.30;4.40;;;22.20;99.90;;;;;;5055632;28;19920;-64
2023/11/28 04:00:12;;;;;;;16.48;6.65;;;22.20;99.90;;;;;;5049013;28;20166;-63
2023/11/28 04:02:39;;;;;;;11.43;3.08;;;22.20;99.90;;;;;;5056187;28;20024;-64
2023/11/28 04:05:08;;;;;;;10.00;3.15;;;22.20;99.90;;;;;;5056176;28;20017;-64
2023/11/28 04:07:36;;;;;;;6.72;3.00;;;22.30;99.90;;;;;;5052996;28;20131;-64
2023/11/28 04:10:03;;;;;;;11.02;2.97;;;22.20;99.90;;;;;;5053451;28;20052;-63
2023/11/28 04:12:30;;;;;;;8.07;2.95;;;22.10;99.90;;;;;;5052817;28;20543;-64
2023/11/28 04:14:57;;;;;;;8.23;4.03;;;22.00;99.90;;;;;;5050993;28;20553;-62
2023/11/28 04:17:24;;;;;;;11.70;4.25;;;22.00;99.90;;;;;;5051934;28;20029;-64
2023/11/28 04:19:51;;;;;;;9.88;5.78;;;22.00;99.90;;;;;;5051885;28;20027;-63
2023/11/28 04:22:18;;;;;;;8.70;3.35;;;22.00;99.90;;;;;;5051303;28;20021;-63
2023/11/28 04:24:45;;;;;;;10.10;3.50;;;21.80;99.90;;;;;;5051294;28;20031;-64
2023/11/28 04:27:12;;;;;;;9.98;3.47;;;21.90;99.90;;;;;;5051639;28;20257;-64
2023/11/28 04:29:38;;;;;;;8.07;3.13;;;21.90;99.90;;;;;;5051532;28;20036;-63
2023/11/28 04:32:06;;;;;;;8.50;3.75;;;22.00;99.90;;;;;;5049176;28;20029;-64
2023/11/28 04:34:36;;;;;;;7.65;3.75;;;22.00;99.90;;;;;;5051655;28;20021;-63
2023/11/28 04:37:03;;;;;;;9.10;3.63;;;22.00;99.90;;;;;;5054506;28;20391;-62
2023/11/28 04:39:30;;;;;;;13.85;3.58;;;22.10;99.90;;;;;;5052936;28;20075;-62
2023/11/28 04:41:57;;;;;;;12.88;3.78;;;22.10;99.90;;;;;;5053565;28;20047;-64
2023/11/28 04:44:24;;;;;;;12.00;4.43;;;22.00;99.90;;;;;;5054192;28;20016;-63
2023/11/28 04:46:51;;;;;;;11.73;4.20;;;21.90;99.90;;;;;;5050816;28;20042;-64
2023/11/28 04:49:20;;;;;;;9.15;3.03;;;21.90;99.90;;;;;;5050941;28;20395;-64
2023/11/28 04:51:47;;;;;;;9.20;3.80;;;21.80;99.90;;;;;;5048949;28;20311;-61
2023/11/28 04:54:13;;;;;;;10.90;3.90;;;21.70;99.90;;;;;;5049727;28;20479;-64
2023/11/28 04:56:40;;;;;;;10.23;3.35;;;21.60;99.90;;;;;;5048355;28;20039;-62
2023/11/28 04:59:08;;;;;;;10.82;3.75;;;21.70;99.90;;;;;;5049984;28;20029;-64
2023/11/28 05:01:46;;;;;;;8.30;4.00;;;21.70;99.90;;;;;;5049755;28;20077;-62
2023/11/28 05:04:16;;;;;;;8.25;3.63;;;21.80;99.90;;;;;;5052632;28;20067;-65
2023/11/28 05:06:43;;;;;;;8.52;3.30;;;21.90;99.90;;;;;;5051845;28;20062;-64
2023/11/28 05:09:11;;;;;;;10.60;3.97;;;22.00;99.90;;;;;;5054570;28;20147;-65
2023/11/28 05:11:38;;;;;;;13.82;3.80;;;22.10;99.90;;;;;;5055050;28;20028;-65
2023/11/28 05:14:05;;;;;;;7.95;2.97;;;22.30;99.90;;;;;;5054261;28;20033;-66
2023/11/28 05:16:32;;;;;;;8.45;3.35;;;22.70;99.90;;;;;;5054076;28;20068;-66
2023/11/28 05:18:59;;;;;;;6.10;2.55;;;23.30;99.90;;;;;;5056564;28;20021;-63
2023/11/28 05:21:26;;;;;;;7.65;2.72;;;23.80;99.90;;;;;;5055482;28;20024;-64
2023/11/28 05:23:53;;;;;;;5.32;2.08;;;23.80;99.90;;;;;;5054604;28;20085;-66
2023/11/28 05:26:20;;;;;;;6.40;2.50;;;23.80;99.90;;;;;;5053465;28;20411;-63
2023/11/28 05:28:47;;;;;;;6.63;2.72;;;23.70;99.90;;;;;;5054663;28;20103;-65
2023/11/28 05:31:15;;;;;;;5.40;2.83;;;23.60;99.90;;;;;;5052620;28;20388;-63
2023/11/28 05:33:42;;;;;;;5.97;2.92;;;23.40;99.90;;;;;;5054513;28;20044;-63
2023/11/28 05:36:09;;;;;;;6.40;3.08;;;23.30;99.90;;;;;;5050579;28;20031;-63
2023/11/28 05:38:36;;;;;;;3.88;2.35;;;23.20;99.90;;;;;;5052988;28;20070;-63
2023/11/28 05:41:04;;;;;;;8.57;2.75;;;23.30;99.90;;;;;;5059168;28;20135;-67
2023/11/28 05:43:32;;;;;;;11.90;3.83;;;23.40;99.90;;;;;;5058782;28;20032;-65
2023/11/28 05:45:59;;;;;;;5.72;2.45;;;23.40;99.90;;;;;;5060614;28;20032;-66
2023/11/28 05:48:26;;;;;;;7.95;2.67;;;23.30;99.90;;;;;;5060805;28;20032;-65
2023/11/28 05:50:54;;;;;;;5.78;2.92;;;23.30;99.90;;;;;;5059280;28;20375;-63
2023/11/28 05:53:23;;;;;;;5.47;2.10;;;23.20;99.90;;;;;;5053728;28;20438;-64
2023/11/28 05:55:50;;;;;;;6.65;2.55;;;23.20;99.90;;;;;;5048205;28;20028;-65
2023/11/28 05:58:17;;;;;;;5.90;2.65;;;23.20;99.90;;;;;;5049339;28;20032;-63
2023/11/28 06:00:44;;;;;;;9.73;3.45;;;23.10;99.90;;;;;;5048522;28;20031;-64
2023/11/28 06:03:11;;;;;;;7.93;2.88;;;23.10;99.90;;;;;;5048212;28;20067;-65
2023/11/28 06:05:41;;;;;;;6.07;2.45;;;23.10;99.90;;;;;;5046700;28;20032;-65
2023/11/28 06:08:08;;;;;;;7.50;2.90;;;23.10;99.90;;;;;;5046681;28;20028;-64
2023/11/28 06:10:35;;;;;;;7.88;3.17;;;23.00;99.90;;;;;;5047111;28;20055;-64
2023/11/28 06:13:05;;;;;;;7.55;4.72;;;23.00;99.90;;;;;;5048703;28;20044;-66
2023/11/28 06:15:31;;;;;;;7.68;4.18;;;22.90;99.90;;;;;;5068846;28;20448;-65
2023/11/28 06:17:58;;;;;;;5.75;3.25;;;22.80;99.90;;;;;;5049036;28;20031;-64
2023/11/28 06:20:25;;;;;;;5.15;2.92;;;22.80;99.90;;;;;;5051614;28;20743;-66
2023/11/28 06:22:53;;;;;;;11.25;3.50;;;22.70;99.90;;;;;;5047629;28;20570;-65
2023/11/28 06:25:20;;;;;;;7.13;3.60;;;22.60;99.90;;;;;;5048429;28;20032;-65
2023/11/28 06:27:47;;;;;;;9.82;3.05;;;22.60;99.90;;;;;;5047662;28;20020;-65
2023/11/28 06:30:14;;;;;;;7.93;3.03;;;22.60;99.90;;;;;;5049682;28;20166;-65
2023/11/28 06:32:41;;;;;;;15.88;4.10;;;22.80;99.90;;;;;;5052048;28;20029;-66
2023/11/28 06:35:10;;;;;;;8.23;3.80;;;23.00;99.90;;;;;;5053972;28;20021;-66
2023/11/28 06:37:38;;;;;;;11.77;3.63;;;23.20;99.90;;;;;;5052640;28;20494;-67
2023/11/28 06:40:05;;;;;;;9.38;4.82;;;23.20;99.90;;;;;;5053225;28;20455;-68
2023/11/28 06:42:32;;;;;;;9.23;4.50;;;23.30;99.90;;;;;;5056674;28;20078;-68
2023/11/28 06:45:02;;;;;;;14.10;6.78;;;23.30;99.90;;;;;;5055349;28;20119;-65
2023/11/28 06:47:29;;;;;;;15.32;9.55;;;23.30;99.90;;;;;;5053287;28;20033;-66
2023/11/28 06:49:56;;;;;;;12.95;5.93;;;23.30;99.90;;;;;;5051152;28;20028;-66
2023/11/28 06:52:23;;;;;;;11.40;4.90;;;23.20;99.90;;;;;;5049142;28;20036;-66
2023/11/28 06:54:50;;;;;;;14.75;5.10;;;23.00;99.90;;;;;;5054709;28;20016;-67
2023/11/28 06:57:17;;;;;;;19.48;7.22;;;22.80;99.90;;;;;;5054042;28;20035;-67
2023/11/28 06:59:44;;;;;;;6.82;3.75;;;22.80;99.90;;;;;;5054834;28;20033;-67
2023/11/28 07:02:11;;;;;;;12.98;4.93;;;22.70;99.90;;;;;;5054977;28;20028;-68
2023/11/28 07:04:38;;;;;;;10.13;4.53;;;22.70;99.90;;;;;;5055824;28;21164;-68
2023/11/28 07:07:05;;;;;;;10.50;3.83;;;22.60;99.90;;;;;;5053965;28;20857;-66
2023/11/28 07:09:36;;;;;;;10.20;3.85;;;22.60;99.90;;;;;;5052493;28;20048;-65
2023/11/28 07:12:03;;;;;;;7.50;3.85;;;22.60;99.90;;;;;;5052135;28;20033;-68
2023/11/28 07:14:30;;;;;;;11.88;4.13;;;22.50;99.90;;;;;;5054382;28;20020;-68
2023/11/28 07:16:57;;;;;;;13.02;4.35;;;22.50;99.90;;;;;;5049919;28;20051;-66
2023/11/28 07:19:24;;;;;;;13.75;6.72;;;22.40;99.90;;;;;;5051359;28;20386;-69
2023/11/28 07:21:51;;;;;;;16.52;4.75;;;22.50;99.90;;;;;;5050722;28;20032;-67
2023/11/28 07:24:19;;;;;;;11.48;4.25;;;22.50;99.90;;;;;;5048220;28;20025;-65
2023/11/28 07:26:46;;;;;;;5.53;3.38;;;22.40;99.90;;;;;;5049817;28;20037;-67
2023/11/28 07:29:13;;;;;;;10.88;4.18;;;22.40;99.90;;;;;;5051698;28;20029;-67
2023/11/28 07:31:40;;;;;;;11.05;3.47;;;22.30;99.90;;;;;;5051382;28;20047;-66
2023/11/28 07:34:07;;;;;;;11.43;4.57;;;22.30;99.90;;;;;;5052417;28;20025;-68
2023/11/28 07:36:34;;;;;;;12.85;4.88;;;22.30;99.90;;;;;;5053994;28;20490;-68
2023/11/28 07:39:03;;;;;;;11.43;3.30;;;22.20;99.90;;;;;;5050771;28;20035;-66
2023/11/28 07:41:31;;;;;;;12.10;3.67;;;22.20;99.90;;;;;;5058843;28;20032;-68
2023/11/28 07:43:58;;;;;;;8.77;3.42;;;22.10;99.90;;;;;;5054677;28;20067;-67
2023/11/28 07:46:26;;;;;;;12.25;3.45;;;22.10;99.90;;;;;;5052797;28;20043;-68
2023/11/28 07:48:53;;;;;;;8.80;4.15;;;21.90;99.90;;;;;;5050948;28;20595;-71
2023/11/28 07:51:20;;;;;;;12.57;4.05;;;22.00;99.90;;;;;;5053059;28;20032;-69
2023/11/28 07:53:47;;;;;;;7.97;3.53;;;22.00;99.90;;;;;;5054821;28;20085;-68
2023/11/28 07:56:15;;;;;;;11.82;4.05;;;22.00;99.90;;;;;;5055547;28;20108;-68
2023/11/28 07:58:43;;;;;;;11.73;3.28;;;21.90;99.90;;;;;;5054152;28;20028;-69
2023/11/28 08:01:10;;;;;;;10.57;3.53;;;22.00;99.90;;;;;;5056656;28;20117;-68
2023/11/28 08:03:37;;;;;;;9.20;3.67;;;21.90;99.90;;;;;;5054623;28;20213;-69
2023/11/28 08:06:05;;;;;;;11.13;4.03;;;21.90;99.90;;;;;;5053239;28;20044;-68
2023/11/28 08:08:32;;;;;;;10.95;4.07;;;21.90;99.90;;;;;;5054652;28;20836;-68
2023/11/28 08:10:59;;;;;;;9.38;3.58;;;22.00;99.90;;;;;;5052805;28;20899;-68
2023/11/28 08:13:26;;;;;;;11.75;3.75;;;21.90;99.90;;;;;;5052853;28;20028;-67
2023/11/28 08:15:53;;;;;;;9.18;3.28;;;21.80;99.90;;;;;;5052721;28;20024;-67
2023/11/28 08:18:20;;;;;;;11.18;4.00;;;21.70;99.90;;;;;;5052225;28;20059;-68
2023/11/28 08:20:47;;;;;;;9.50;3.53;;;21.70;99.90;;;;;;5066883;28;20055;-69
2023/11/28 08:23:14;;;;;;;10.68;4.10;;;21.80;99.90;;;;;;5058557;28;20036;-66
2023/11/28 08:25:41;;;;;;;11.45;4.05;;;21.80;99.90;;;;;;5061934;28;20526;-66
2023/11/28 08:28:07;;;;;;;12.10;3.92;;;21.70;99.90;;;;;;5057566;28;20030;-67
2023/11/28 08:30:34;;;;;;;9.38;3.33;;;21.70;99.90;;;;;;5057467;28;20037;-67
2023/11/28 08:33:01;;;;;;;12.70;3.38;;;21.70;99.90;;;;;;5057405;28;20439;-66
2023/11/28 08:35:29;;;;;;;8.65;3.42;;;21.70;99.90;;;;;;5056064;28;20024;-67
2023/11/28 08:37:56;;;;;;;10.25;3.58;;;21.70;99.90;;;;;;5055756;28;20162;-66
2023/11/28 08:40:22;;;;;;;12.38;4.60;;;21.60;99.90;;;;;;5053688;28;20129;-66
2023/11/28 08:42:49;;;;;;;12.50;4.30;;;21.60;99.90;;;;;;5057187;28;20033;-67
2023/11/28 08:45:16;;;;;;;12.68;5.97;;;21.50;99.90;;;;;;5057315;28;20644;-68
2023/11/28 08:47:43;;;;;;;10.48;4.32;;;21.50;99.90;;;;;;5056867;28;20112;-68
2023/11/28 08:50:12;;;;;;;7.55;3.10;;;21.40;99.90;;;;;;5054335;28;20032;-68
2023/11/28 08:52:39;;;;;;;12.27;4.05;;;21.40;99.90;;;;;;5052559;28;20477;-65
2023/11/28 08:55:06;;;;;;;9.48;5.40;;;21.30;99.90;;;;;;5054000;28;20025;-67
2023/11/28 08:57:34;;;;;;;10.20;6.97;;;21.40;99.90;;;;;;5055216;28;20024;-63
2023/11/28 09:00:07;;;;;;;23.52;18.02;;;21.40;99.90;;;;;;5053447;28;20033;-66
2023/11/28 09:02:34;;;;;;;9.35;4.15;;;21.40;99.90;;;;;;5050894;28;20024;-62
2023/11/28 09:05:01;;;;;;;6.88;3.83;;;21.30;99.90;;;;;;5055481;28;20035;-66
2023/11/28 09:07:27;;;;;;;6.63;3.08;;;21.30;99.90;;;;;;5052473;28;20029;-67
2023/11/28 09:09:54;;;;;;;6.82;2.50;;;21.20;99.90;;;;;;5054631;28;20048;-65
2023/11/28 09:12:21;;;;;;;5.70;2.80;;;21.10;99.90;;;;;;5053691;28;20093;-64
2023/11/28 09:14:48;;;;;;;6.10;2.80;;;21.10;99.90;;;;;;5051382;28;20719;-65
2023/11/28 09:17:16;;;;;;;5.38;2.70;;;21.10;99.90;;;;;;5049420;28;20123;-68
2023/11/28 09:19:43;;;;;;;10.95;2.88;;;21.10;99.90;;;;;;5050623;28;20618;-64
2023/11/28 09:22:10;;;;;;;5.25;2.80;;;21.10;99.90;;;;;;5052880;28;20032;-65
2023/11/28 09:24:38;;;;;;;7.68;3.50;;;21.10;99.90;;;;;;5054570;28;20071;-67
2023/11/28 09:27:07;;;;;;;15.95;8.23;;;21.00;99.90;;;;;;5057364;28;20028;-65
2023/11/28 09:29:36;;;;;;;6.30;4.32;;;21.10;99.90;;;;;;5056512;28;20043;-65
2023/11/28 09:32:03;;;;;;;6.82;3.33;;;21.10;99.90;;;;;;5055779;28;20031;-63
2023/11/28 09:34:31;;;;;;;7.53;3.53;;;21.10;99.90;;;;;;5057207;28;20040;-69
2023/11/28 09:36:58;;;;;;;8.27;3.65;;;21.00;99.90;;;;;;5056746;28;20043;-68
2023/11/28 09:39:26;;;;;;;12.68;4.63;;;20.90;99.90;;;;;;5056036;28;20071;-65
2023/11/28 09:41:54;;;;;;;8.85;3.58;;;20.80;99.90;;;;;;5057236;28;20136;-65
2023/11/28 09:44:25;;;;;;;11.65;4.47;;;20.80;99.90;;;;;;5055445;28;20035;-64
2023/11/28 09:46:56;;;;;;;8.10;4.03;;;20.80;99.90;;;;;;5057920;28;20020;-62
2023/11/28 09:49:24;;;;;;;11.02;4.25;;;20.70;99.90;;;;;;5057737;28;20033;-67
2023/11/28 09:51:54;;;;;;;9.77;4.20;;;20.70;99.90;;;;;;5058401;28;20584;-65
2023/11/28 09:54:22;;;;;;;8.90;3.38;;;20.70;99.90;;;;;;5058481;28;20036;-65
2023/11/28 09:56:50;;;;;;;8.02;4.40;;;20.60;99.90;;;;;;5062100;28;20020;-62
2023/11/28 09:59:18;;;;;;;8.73;5.72;;;20.60;99.90;;;;;;5063083;28;20027;-66
2023/11/28 10:01:47;;;;;;;11.85;6.97;;;20.60;99.90;;;;;;5063485;28;21342;-66
2023/11/28 10:04:14;;;;;;;15.77;6.00;;;20.50;99.90;;;;;;5063515;28;20024;-65
2023/11/28 10:06:44;;;;;;;14.57;5.70;;;20.60;99.90;;;;;;5062553;28;20083;-63
2023/11/28 10:09:12;;;;;;;11.32;5.10;;;20.60;99.90;;;;;;5060764;28;20709;-65
2023/11/28 10:11:40;;;;;;;12.75;5.47;;;20.50;99.90;;;;;;5062437;28;20033;-65
2023/11/28 10:14:07;;;;;;;8.32;4.28;;;20.50;99.90;;;;;;5061884;28;20025;-64
2023/11/28 10:16:46;;;;;;;11.73;4.78;;;20.40;99.90;;;;;;5061014;28;20093;-64
2023/11/28 10:19:16;;;;;;;8.60;4.63;;;20.50;99.90;;;;;;5061704;28;20032;-66
2023/11/28 10:21:48;;;;;;;9.93;4.57;;;20.60;99.90;;;;;;5060260;28;20036;-64
2023/11/28 10:24:16;;;;;;;15.05;5.30;;;20.60;99.90;;;;;;5060130;28;20214;-64
2023/11/28 10:26:43;;;;;;;13.60;5.35;;;20.70;99.90;;;;;;5059201;28;20105;-63
2023/11/28 10:29:11;;;;;;;12.55;4.75;;;20.70;99.90;;;;;;5060159;28;20031;-69
2023/11/28 10:31:42;;;;;;;14.52;5.68;;;20.80;99.90;;;;;;5059262;28;20032;-65
2023/11/28 10:34:09;;;;;;;9.93;4.25;;;20.80;99.90;;;;;;5060216;28;20105;-65
2023/11/28 10:36:40;;;;;;;11.20;5.03;;;20.80;99.90;;;;;;5062033;28;20106;-71
2023/11/28 10:39:12;;;;;;;13.55;5.10;;;20.90;99.90;;;;;;5060123;28;20041;-66
2023/11/28 10:41:40;;;;;;;12.32;4.55;;;21.00;99.90;;;;;;5061082;28;20043;-70
2023/11/28 10:44:08;;;;;;;9.30;4.28;;;21.00;99.90;;;;;;5058511;28;20028;-66
2023/11/28 10:46:37;;;;;;;10.52;4.78;;;21.00;99.90;;;;;;5061280;28;20029;-71
2023/11/28 10:49:08;;;;;;;13.70;5.30;;;21.00;99.90;;;;;;5063075;28;20387;-65
2023/11/28 10:51:36;;;;;;;14.98;5.82;;;21.00;99.90;;;;;;5060658;28;20486;-65
2023/11/28 10:54:08;;;;;;;15.73;4.65;;;20.90;99.90;;;;;;5054340;28;20564;-67
2023/11/28 10:57:01;;;;;;;15.38;5.15;;;20.90;99.90;;;;;;5059008;28;20017;-64
2023/11/28 10:59:36;;;;;;;13.25;4.97;;;20.90;99.90;;;;;;5061208;28;20101;-67
2023/11/28 11:02:06;;;;;;;13.52;5.72;;;21.00;99.90;;;;;;5059518;28;20132;-65
2023/11/28 11:04:34;;;;;;;8.50;5.22;;;21.00;99.90;;;;;;5058804;28;20032;-67
2023/11/28 11:07:01;;;;;;;11.27;4.80;;;21.00;99.90;;;;;;5056494;28;20025;-67
2023/11/28 11:09:28;;;;;;;14.27;5.10;;;21.00;99.90;;;;;;5058578;28;20028;-71
2023/11/28 11:11:57;;;;;;;19.20;6.22;;;21.00;99.90;;;;;;5060083;28;20090;-65
2023/11/28 11:15:06;;;;;;;8.13;3.92;;;21.00;99.90;;;;;;5050910;28;20384;-65
2023/11/28 11:18:05;;;;;;;14.40;5.22;;;21.00;99.90;;;;;;5019580;28;20482;-64
2023/11/28 11:20:35;;;;;;;16.30;4.72;;;21.00;99.90;;;;;;5019452;28;20022;-64
2023/11/28 11:23:04;;;;;;;12.77;4.68;;;21.00;99.90;;;;;;5018839;28;20607;-66
2023/11/28 11:25:41;;;;;;;16.75;5.32;;;21.00;99.90;;;;;;5022210;28;20029;-65
2023/11/28 11:28:09;;;;;;;9.30;4.53;;;21.20;99.90;;;;;;5023193;28;20045;-64
2023/11/28 11:30:42;;;;;;;15.13;4.65;;;21.10;99.90;;;;;;5019034;28;20117;-64
2023/11/28 11:33:13;;;;;;;13.13;4.18;;;21.10;99.90;;;;;;5023150;28;20025;-68
2023/11/28 11:36:14;;;;;;;14.13;4.15;;;21.00;99.90;;;;;;5025713;28;20650;-66
2023/11/28 11:38:41;;;;;;;10.45;4.15;;;21.10;99.90;;;;;;4927907;29;20123;-69
2023/11/28 11:41:11;;;;;;;10.68;4.65;;;21.10;99.90;;;;;;4927184;29;20167;-65
2023/11/28 11:43:41;;;;;;;11.18;4.22;;;21.20;99.90;;;;;;4935598;29;20045;-65
2023/11/28 11:46:12;;;;;;;11.40;4.72;;;21.10;99.90;;;;;;4927945;29;20046;-64
2023/11/28 11:48:40;;;;;;;10.00;3.83;;;21.10;99.90;;;;;;4929245;29;20047;-64
2023/11/28 11:51:08;;;;;;;12.52;4.40;;;21.20;99.90;;;;;;4929718;29;20047;-66
2023/11/28 11:53:43;;;;;;;12.93;5.18;;;21.30;99.90;;;;;;4948639;28;20078;-69
2023/11/28 11:56:11;;;;;;;12.00;4.47;;;21.30;99.90;;;;;;4981151;28;20397;-68
2023/11/28 11:58:38;;;;;;;10.40;4.07;;;21.20;99.90;;;;;;4983488;28;20137;-65
2023/11/28 12:01:05;;;;;;;12.85;4.78;;;21.20;99.90;;;;;;4980601;28;20510;-64
2023/11/28 12:03:33;;;;;;;9.27;4.03;;;21.30;99.90;;;;;;4966800;28;20560;-68
2023/11/28 12:06:00;;;;;;;11.20;4.22;;;21.50;99.90;;;;;;4979146;28;20512;-66
2023/11/28 12:08:27;;;;;;;11.55;4.53;;;21.40;99.90;;;;;;4977975;28;20048;-69
2023/11/28 12:11:10;;;;;;;11.63;3.92;;;21.40;99.90;;;;;;4973664;28;20474;-65
2023/11/28 12:13:38;;;;;;;10.57;4.45;;;21.30;99.90;;;;;;4991060;28;20404;-65
2023/11/28 12:16:06;;;;;;;12.77;5.30;;;21.30;99.90;;;;;;5052960;28;20033;-68
2023/11/28 12:18:34;;;;;;;9.82;4.28;;;21.30;99.90;;;;;;5055294;28;20481;-65
2023/11/28 12:21:01;;;;;;;10.35;4.55;;;21.30;99.90;;;;;;5060834;28;20039;-65
2023/11/28 12:23:28;;;;;;;11.32;4.90;;;21.30;99.90;;;;;;5062317;28;20379;-65
2023/11/28 12:26:00;;;;;;;11.20;4.60;;;21.30;99.90;;;;;;5059299;28;20077;-65
2023/11/28 12:28:27;;;;;;;14.70;5.15;;;21.30;99.90;;;;;;5058646;28;20474;-68
2023/11/28 12:30:55;;;;;;;14.88;4.90;;;21.30;99.90;;;;;;5060117;28;20080;-66
2023/11/28 12:33:23;;;;;;;12.00;4.32;;;21.30;99.90;;;;;;5058888;28;20054;-65
2023/11/28 12:35:50;;;;;;;13.55;4.85;;;21.20;99.90;;;;;;5061969;28;20125;-66
2023/11/28 12:38:18;;;;;;;11.57;5.18;;;21.10;99.90;;;;;;5055183;28;20048;-69
2023/11/28 12:40:46;;;;;;;12.93;5.10;;;21.10;99.90;;;;;;5065091;23;20092;-67
2023/11/28 12:43:22;;;;;;;14.15;5.32;;;21.20;99.90;;;;;;5062252;28;20025;-69
2023/11/28 12:45:55;;;;;;;13.13;4.85;;;21.10;99.90;;;;;;5061121;28;20027;-68
2023/11/28 12:48:22;;;;;;;11.23;5.03;;;21.20;99.90;;;;;;5057559;28;20017;-66